DLH17C EDDF-EDDM
Flight info
| Callsign | DLH17C |
|---|---|
| Flight time | 0h 46m |
| Altitude | 23000 |
| Route | CINDY8S/18 CINDY Z74 HAREM T104 ROKIL ROKIL1A |
| Aircraft | A20N/M-SDE2E3FGHIRWXY/LB1 |
Departure
| Time | 2026-04-17 09:29 |
|---|---|
| Airport | Frankfurt Main Airport (EDDF) |
Arrival
| Time | 2026-04-17 10:15 |
|---|---|
| Airport | Munich Airport (EDDM) |
| Time | Latitude | Longitude | Altitude | Speed | Heading |
|---|---|---|---|---|---|
| 2026-04-17 08:43 | 50.04701 | 8.57087 | 353 ft | 0 kts | 112° |
| 2026-04-17 09:14 | 50.04706 | 8.57070 | 358 ft | 3 kts | 112° |
| 2026-04-17 09:15 | 50.04713 | 8.57043 | 356 ft | 3 kts | 112° |
| 2026-04-17 09:15 | 50.04724 | 8.57018 | 359 ft | 3 kts | 149° |
| 2026-04-17 09:15 | 50.04742 | 8.57011 | 359 ft | 3 kts | 191° |
| 2026-04-17 09:15 | 50.04744 | 8.57011 | 361 ft | 0 kts | 196° |
| 2026-04-17 09:20 | 50.04741 | 8.57009 | 359 ft | 2 kts | 201° |
| 2026-04-17 09:20 | 50.04719 | 8.56993 | 362 ft | 7 kts | 204° |
| 2026-04-17 09:20 | 50.04651 | 8.56941 | 360 ft | 13 kts | 207° |
| 2026-04-17 09:20 | 50.04585 | 8.56904 | 354 ft | 18 kts | 195° |
| 2026-04-17 09:21 | 50.04451 | 8.56857 | 356 ft | 22 kts | 191° |
| 2026-04-17 09:21 | 50.04338 | 8.56826 | 353 ft | 12 kts | 191° |
| 2026-04-17 09:21 | 50.04226 | 8.56790 | 362 ft | 18 kts | 191° |
| 2026-04-17 09:21 | 50.04157 | 8.56761 | 360 ft | 7 kts | 202° |
| 2026-04-17 09:22 | 50.04155 | 8.56760 | 361 ft | 1 kts | 202° |
| 2026-04-17 09:22 | 50.04154 | 8.56759 | 361 ft | 0 kts | 204° |
| 2026-04-17 09:22 | 50.04158 | 8.56732 | 362 ft | 9 kts | 319° |
| 2026-04-17 09:22 | 50.04204 | 8.56675 | 358 ft | 7 kts | 279° |
| 2026-04-17 09:23 | 50.04192 | 8.56555 | 359 ft | 14 kts | 251° |
| 2026-04-17 09:23 | 50.04150 | 8.56376 | 360 ft | 21 kts | 249° |
| 2026-04-17 09:23 | 50.04094 | 8.56137 | 360 ft | 26 kts | 250° |
| 2026-04-17 09:23 | 50.04024 | 8.55843 | 354 ft | 31 kts | 249° |
| 2026-04-17 09:24 | 50.03942 | 8.55509 | 355 ft | 35 kts | 250° |
| 2026-04-17 09:24 | 50.03854 | 8.55133 | 356 ft | 39 kts | 249° |
| 2026-04-17 09:24 | 50.03763 | 8.54742 | 357 ft | 37 kts | 249° |
| 2026-04-17 09:24 | 50.03669 | 8.54353 | 359 ft | 40 kts | 249° |
| 2026-04-17 09:25 | 50.03573 | 8.53954 | 358 ft | 26 kts | 249° |
| 2026-04-17 09:25 | 50.03532 | 8.53786 | 360 ft | 16 kts | 249° |
| 2026-04-17 09:25 | 50.03490 | 8.53622 | 354 ft | 17 kts | 248° |
| 2026-04-17 09:25 | 50.03448 | 8.53450 | 360 ft | 17 kts | 251° |
| 2026-04-17 09:26 | 50.03408 | 8.53278 | 353 ft | 17 kts | 250° |
| 2026-04-17 09:26 | 50.03364 | 8.53094 | 353 ft | 19 kts | 250° |
| 2026-04-17 09:26 | 50.03314 | 8.52882 | 358 ft | 23 kts | 250° |
| 2026-04-17 09:26 | 50.03285 | 8.52760 | 357 ft | 0 kts | 248° |
| 2026-04-17 09:27 | 50.03279 | 8.52738 | 355 ft | 4 kts | 249° |
| 2026-04-17 09:27 | 50.03278 | 8.52731 | 355 ft | 0 kts | 249° |
| 2026-04-17 09:28 | 50.03276 | 8.52725 | 356 ft | 2 kts | 249° |
| 2026-04-17 09:28 | 50.03227 | 8.52635 | 361 ft | 20 kts | 214° |
| 2026-04-17 09:28 | 50.03015 | 8.52599 | 358 ft | 52 kts | 179° |
| 2026-04-17 09:28 | 50.02417 | 8.52605 | 365 ft | 120 kts | 179° |
| 2026-04-17 09:29 | 50.01381 | 8.52598 | 386 ft | 172 kts | 181° |
| 2026-04-17 09:29 | 50.00218 | 8.52465 | 1118 ft | 163 kts | 185° |
| 2026-04-17 09:29 | 49.99079 | 8.52392 | 1930 ft | 161 kts | 178° |
| 2026-04-17 09:29 | 49.97912 | 8.52494 | 2605 ft | 183 kts | 173° |
| 2026-04-17 09:30 | 49.96617 | 8.53240 | 3031 ft | 217 kts | 141° |
| 2026-04-17 09:30 | 49.95650 | 8.55140 | 3912 ft | 228 kts | 122° |
| 2026-04-17 09:30 | 49.94874 | 8.57284 | 4683 ft | 231 kts | 119° |
| 2026-04-17 09:30 | 49.94215 | 8.59560 | 5121 ft | 234 kts | 107° |
| 2026-04-17 09:31 | 49.93939 | 8.62169 | 5228 ft | 257 kts | 96° |
| 2026-04-17 09:31 | 49.93826 | 8.64989 | 5246 ft | 269 kts | 94° |
| 2026-04-17 09:31 | 49.93574 | 8.67852 | 5227 ft | 269 kts | 108° |
| 2026-04-17 09:31 | 49.92703 | 8.70390 | 5238 ft | 266 kts | 132° |
| 2026-04-17 09:32 | 49.91326 | 8.72292 | 5241 ft | 265 kts | 143° |
| 2026-04-17 09:32 | 49.89821 | 8.73980 | 5228 ft | 266 kts | 144° |
| 2026-04-17 09:32 | 49.88463 | 8.75866 | 5237 ft | 266 kts | 130° |
| 2026-04-17 09:32 | 49.87425 | 8.78252 | 5240 ft | 267 kts | 121° |
| 2026-04-17 09:33 | 49.86500 | 8.80766 | 5224 ft | 267 kts | 120° |
| 2026-04-17 09:33 | 49.85589 | 8.83310 | 5578 ft | 271 kts | 120° |
| 2026-04-17 09:33 | 49.84674 | 8.85865 | 6601 ft | 273 kts | 120° |
| 2026-04-17 09:33 | 49.83750 | 8.88429 | 7698 ft | 274 kts | 120° |
| 2026-04-17 09:34 | 49.82817 | 8.91010 | 8660 ft | 280 kts | 120° |
| 2026-04-17 09:34 | 49.81848 | 8.93679 | 9605 ft | 286 kts | 119° |
| 2026-04-17 09:34 | 49.80868 | 8.96374 | 10501 ft | 293 kts | 119° |
| 2026-04-17 09:34 | 49.79818 | 8.99260 | 10921 ft | 317 kts | 119° |
| 2026-04-17 09:35 | 49.78706 | 9.02313 | 11413 ft | 336 kts | 119° |
| 2026-04-17 09:35 | 49.77534 | 9.05523 | 12200 ft | 345 kts | 119° |
| 2026-04-17 09:35 | 49.76422 | 9.08827 | 13036 ft | 352 kts | 112° |
| 2026-04-17 09:35 | 49.75659 | 9.12465 | 13919 ft | 357 kts | 104° |
| 2026-04-17 09:36 | 49.75009 | 9.16162 | 14682 ft | 363 kts | 107° |
| 2026-04-17 09:36 | 49.73943 | 9.19753 | 15448 ft | 370 kts | 121° |
| 2026-04-17 09:36 | 49.72461 | 9.23051 | 16240 ft | 375 kts | 127° |
| 2026-04-17 09:36 | 49.70808 | 9.26158 | 17022 ft | 380 kts | 131° |
| 2026-04-17 09:37 | 49.69019 | 9.29252 | 17796 ft | 386 kts | 132° |
| 2026-04-17 09:37 | 49.67210 | 9.32296 | 18545 ft | 390 kts | 133° |
| 2026-04-17 09:37 | 49.65357 | 9.35416 | 19188 ft | 395 kts | 132° |
| 2026-04-17 09:37 | 49.63517 | 9.38551 | 19826 ft | 400 kts | 132° |
| 2026-04-17 09:38 | 49.61646 | 9.41779 | 20478 ft | 404 kts | 131° |
| 2026-04-17 09:38 | 49.59769 | 9.45051 | 21124 ft | 408 kts | 131° |
| 2026-04-17 09:38 | 49.57901 | 9.48326 | 21754 ft | 413 kts | 131° |
| 2026-04-17 09:38 | 49.55989 | 9.51688 | 22383 ft | 417 kts | 131° |
| 2026-04-17 09:39 | 49.54059 | 9.55081 | 22966 ft | 422 kts | 131° |
| 2026-04-17 09:39 | 49.52114 | 9.58496 | 23207 ft | 420 kts | 131° |
| 2026-04-17 09:39 | 49.50217 | 9.61818 | 23226 ft | 415 kts | 131° |
| 2026-04-17 09:39 | 49.48322 | 9.65131 | 23233 ft | 414 kts | 131° |
| 2026-04-17 09:40 | 49.46415 | 9.68460 | 23231 ft | 413 kts | 131° |
| 2026-04-17 09:40 | 49.44525 | 9.71754 | 23232 ft | 414 kts | 131° |
| 2026-04-17 09:40 | 49.42612 | 9.75082 | 23232 ft | 414 kts | 131° |
| 2026-04-17 09:40 | 49.40726 | 9.78361 | 23230 ft | 414 kts | 131° |
| 2026-04-17 09:41 | 49.38792 | 9.81720 | 23233 ft | 414 kts | 131° |
| 2026-04-17 09:41 | 49.36896 | 9.85005 | 23245 ft | 414 kts | 131° |
| 2026-04-17 09:41 | 49.35000 | 9.88280 | 23245 ft | 414 kts | 131° |
| 2026-04-17 09:41 | 49.33082 | 9.91589 | 23244 ft | 414 kts | 131° |
| 2026-04-17 09:42 | 49.31167 | 9.94886 | 23236 ft | 414 kts | 131° |
| 2026-04-17 09:42 | 49.29244 | 9.98192 | 23236 ft | 414 kts | 131° |
| 2026-04-17 09:42 | 49.27321 | 10.01497 | 23203 ft | 414 kts | 131° |
| 2026-04-17 09:42 | 49.25426 | 10.04750 | 23243 ft | 414 kts | 131° |
| 2026-04-17 09:43 | 49.23499 | 10.08055 | 23228 ft | 414 kts | 131° |
| 2026-04-17 09:43 | 49.21574 | 10.11351 | 23229 ft | 414 kts | 131° |
| 2026-04-17 09:43 | 49.19669 | 10.14610 | 23231 ft | 414 kts | 131° |
| 2026-04-17 09:43 | 49.17740 | 10.17908 | 23229 ft | 414 kts | 131° |
| 2026-04-17 09:44 | 49.15818 | 10.21191 | 23241 ft | 414 kts | 131° |
| 2026-04-17 09:44 | 49.13904 | 10.24434 | 23226 ft | 414 kts | 132° |
| 2026-04-17 09:44 | 49.11941 | 10.27662 | 23230 ft | 414 kts | 133° |
| 2026-04-17 09:44 | 49.09975 | 10.30837 | 23235 ft | 414 kts | 133° |
| 2026-04-17 09:45 | 49.07971 | 10.34045 | 23238 ft | 414 kts | 133° |
| 2026-04-17 09:45 | 49.05974 | 10.37231 | 23247 ft | 414 kts | 133° |
| 2026-04-17 09:45 | 49.04005 | 10.40373 | 23232 ft | 414 kts | 133° |
| 2026-04-17 09:45 | 49.02008 | 10.43560 | 23232 ft | 414 kts | 133° |
| 2026-04-17 09:46 | 49.00004 | 10.46762 | 23233 ft | 414 kts | 133° |
| 2026-04-17 09:46 | 48.98029 | 10.49914 | 23252 ft | 415 kts | 133° |
| 2026-04-17 09:46 | 48.96036 | 10.53088 | 23238 ft | 415 kts | 133° |
| 2026-04-17 09:46 | 48.94052 | 10.56247 | 23240 ft | 415 kts | 133° |
| 2026-04-17 09:47 | 48.92067 | 10.59407 | 23236 ft | 415 kts | 133° |
| 2026-04-17 09:47 | 48.90066 | 10.62587 | 23003 ft | 412 kts | 133° |
| 2026-04-17 09:47 | 48.88104 | 10.65702 | 22603 ft | 411 kts | 133° |
| 2026-04-17 09:47 | 48.86121 | 10.68847 | 22180 ft | 411 kts | 133° |
| 2026-04-17 09:48 | 48.84133 | 10.71997 | 21679 ft | 410 kts | 133° |
| 2026-04-17 09:48 | 48.82156 | 10.75124 | 21143 ft | 407 kts | 133° |
| 2026-04-17 09:48 | 48.80227 | 10.78167 | 20628 ft | 404 kts | 134° |
| 2026-04-17 09:48 | 48.78263 | 10.81252 | 20024 ft | 403 kts | 134° |
| 2026-04-17 09:49 | 48.76335 | 10.84277 | 19385 ft | 402 kts | 134° |
| 2026-04-17 09:49 | 48.74372 | 10.87355 | 18685 ft | 404 kts | 134° |
| 2026-04-17 09:49 | 48.72409 | 10.90428 | 17886 ft | 405 kts | 134° |
| 2026-04-17 09:49 | 48.70474 | 10.93453 | 17176 ft | 404 kts | 134° |
| 2026-04-17 09:50 | 48.68515 | 10.96509 | 16638 ft | 398 kts | 134° |
| 2026-04-17 09:50 | 48.66624 | 10.99453 | 16245 ft | 388 kts | 134° |
| 2026-04-17 09:50 | 48.64744 | 11.02377 | 15755 ft | 382 kts | 134° |
| 2026-04-17 09:50 | 48.62918 | 11.05214 | 15269 ft | 377 kts | 134° |
| 2026-04-17 09:51 | 48.61085 | 11.08061 | 14788 ft | 372 kts | 134° |
| 2026-04-17 09:51 | 48.59295 | 11.10828 | 14312 ft | 368 kts | 135° |
| 2026-04-17 09:51 | 48.57357 | 11.13299 | 13733 ft | 366 kts | 142° |
| 2026-04-17 09:51 | 48.55282 | 11.15618 | 12965 ft | 367 kts | 141° |
| 2026-04-17 09:52 | 48.53492 | 11.18319 | 12227 ft | 367 kts | 126° |
| 2026-04-17 09:52 | 48.52312 | 11.21708 | 11710 ft | 359 kts | 106° |
| 2026-04-17 09:52 | 48.51904 | 11.25263 | 11699 ft | 336 kts | 90° |
| 2026-04-17 09:52 | 48.52029 | 11.28684 | 11714 ft | 315 kts | 82° |
| 2026-04-17 09:53 | 48.52280 | 11.31852 | 11726 ft | 300 kts | 81° |
| 2026-04-17 09:53 | 48.52528 | 11.34760 | 11536 ft | 297 kts | 81° |
| 2026-04-17 09:53 | 48.52788 | 11.37821 | 11198 ft | 296 kts | 81° |
| 2026-04-17 09:53 | 48.53046 | 11.40909 | 10854 ft | 294 kts | 81° |
| 2026-04-17 09:54 | 48.53297 | 11.43973 | 10522 ft | 292 kts | 82° |
| 2026-04-17 09:54 | 48.53537 | 11.46970 | 10292 ft | 289 kts | 82° |
| 2026-04-17 09:54 | 48.53777 | 11.49971 | 10264 ft | 288 kts | 82° |
| 2026-04-17 09:54 | 48.54017 | 11.52992 | 10261 ft | 288 kts | 82° |
| 2026-04-17 09:55 | 48.54255 | 11.56020 | 10253 ft | 288 kts | 82° |
| 2026-04-17 09:55 | 48.54486 | 11.59000 | 10259 ft | 289 kts | 82° |
| 2026-04-17 09:55 | 48.54721 | 11.62016 | 10253 ft | 288 kts | 82° |
| 2026-04-17 09:55 | 48.54957 | 11.65005 | 10260 ft | 288 kts | 82° |
| 2026-04-17 09:56 | 48.55193 | 11.68027 | 10252 ft | 288 kts | 82° |
| 2026-04-17 09:56 | 48.55424 | 11.71008 | 10258 ft | 288 kts | 82° |
| 2026-04-17 09:56 | 48.55658 | 11.74041 | 10262 ft | 288 kts | 82° |
| 2026-04-17 09:56 | 48.55886 | 11.77016 | 10260 ft | 288 kts | 82° |
| 2026-04-17 09:57 | 48.56116 | 11.80023 | 10251 ft | 288 kts | 82° |
| 2026-04-17 09:57 | 48.56349 | 11.83052 | 10251 ft | 288 kts | 82° |
| 2026-04-17 09:57 | 48.56578 | 11.86031 | 10256 ft | 288 kts | 82° |
| 2026-04-17 09:57 | 48.56780 | 11.89057 | 10256 ft | 289 kts | 85° |
| 2026-04-17 09:58 | 48.56698 | 11.92081 | 10254 ft | 290 kts | 97° |
| 2026-04-17 09:58 | 48.56159 | 11.95024 | 10256 ft | 291 kts | 112° |
| 2026-04-17 09:58 | 48.55172 | 11.97654 | 10250 ft | 292 kts | 126° |
| 2026-04-17 09:58 | 48.53760 | 11.99880 | 10258 ft | 293 kts | 140° |
| 2026-04-17 09:59 | 48.52046 | 12.01506 | 10242 ft | 294 kts | 154° |
| 2026-04-17 09:59 | 48.50097 | 12.02462 | 10241 ft | 295 kts | 169° |
| 2026-04-17 09:59 | 48.48043 | 12.02621 | 10242 ft | 295 kts | 185° |
| 2026-04-17 09:59 | 48.46074 | 12.01918 | 10249 ft | 294 kts | 202° |
| 2026-04-17 10:00 | 48.44296 | 12.00382 | 10244 ft | 293 kts | 219° |
| 2026-04-17 10:00 | 48.42894 | 11.98161 | 10240 ft | 292 kts | 236° |
| 2026-04-17 10:00 | 48.41978 | 11.95463 | 10242 ft | 290 kts | 252° |
| 2026-04-17 10:00 | 48.41604 | 11.92511 | 10242 ft | 289 kts | 269° |
| 2026-04-17 10:01 | 48.41794 | 11.89511 | 10251 ft | 287 kts | 285° |
| 2026-04-17 10:01 | 48.42440 | 11.86692 | 10238 ft | 287 kts | 294° |
| 2026-04-17 10:01 | 48.43238 | 11.83919 | 10243 ft | 287 kts | 295° |
| 2026-04-17 10:01 | 48.44036 | 11.81189 | 10236 ft | 287 kts | 293° |
| 2026-04-17 10:02 | 48.44608 | 11.78293 | 10233 ft | 288 kts | 280° |
| 2026-04-17 10:02 | 48.44691 | 11.75316 | 10240 ft | 289 kts | 268° |
| 2026-04-17 10:02 | 48.44504 | 11.72311 | 10235 ft | 289 kts | 264° |
| 2026-04-17 10:02 | 48.44261 | 11.69283 | 10236 ft | 290 kts | 264° |
| 2026-04-17 10:03 | 48.44015 | 11.66265 | 10246 ft | 290 kts | 264° |
| 2026-04-17 10:03 | 48.43776 | 11.63284 | 10236 ft | 289 kts | 264° |
| 2026-04-17 10:03 | 48.43537 | 11.60278 | 10065 ft | 288 kts | 264° |
| 2026-04-17 10:03 | 48.43298 | 11.57265 | 9621 ft | 287 kts | 264° |
| 2026-04-17 10:04 | 48.43060 | 11.54269 | 9149 ft | 287 kts | 264° |
| 2026-04-17 10:04 | 48.42825 | 11.51306 | 8680 ft | 287 kts | 264° |
| 2026-04-17 10:04 | 48.42586 | 11.48297 | 8251 ft | 287 kts | 264° |
| 2026-04-17 10:04 | 48.42351 | 11.45337 | 7854 ft | 285 kts | 263° |
| 2026-04-17 10:05 | 48.42113 | 11.42361 | 7443 ft | 284 kts | 263° |
| 2026-04-17 10:05 | 48.41877 | 11.39453 | 7262 ft | 282 kts | 263° |
| 2026-04-17 10:05 | 48.41634 | 11.36502 | 7252 ft | 283 kts | 263° |
| 2026-04-17 10:05 | 48.41398 | 11.33586 | 7238 ft | 283 kts | 263° |
| 2026-04-17 10:06 | 48.41154 | 11.30626 | 7247 ft | 283 kts | 260° |
| 2026-04-17 10:06 | 48.40434 | 11.27941 | 7248 ft | 281 kts | 230° |
| 2026-04-17 10:06 | 48.38874 | 11.26260 | 7242 ft | 276 kts | 197° |
| 2026-04-17 10:06 | 48.36989 | 11.26163 | 7226 ft | 272 kts | 162° |
| 2026-04-17 10:07 | 48.35869 | 11.26982 | 7251 ft | 271 kts | 143° |
| 2026-04-17 10:07 | 48.33799 | 11.29126 | 7228 ft | 273 kts | 149° |
| 2026-04-17 10:07 | 48.32103 | 11.30466 | 7242 ft | 274 kts | 152° |
| 2026-04-17 10:07 | 48.30416 | 11.31740 | 7224 ft | 274 kts | 152° |
| 2026-04-17 10:08 | 48.28716 | 11.33017 | 7230 ft | 265 kts | 152° |
| 2026-04-17 10:08 | 48.27145 | 11.34261 | 7235 ft | 247 kts | 145° |
| 2026-04-17 10:08 | 48.26196 | 11.35214 | 7251 ft | 238 kts | 141° |
| 2026-04-17 10:08 | 48.25116 | 11.36937 | 7188 ft | 223 kts | 115° |
| 2026-04-17 10:09 | 48.24935 | 11.39141 | 7118 ft | 209 kts | 73° |
| 2026-04-17 10:09 | 48.25562 | 11.41043 | 7098 ft | 198 kts | 61° |
| 2026-04-17 10:09 | 48.26246 | 11.42794 | 6897 ft | 195 kts | 61° |
| 2026-04-17 10:09 | 48.26928 | 11.44519 | 6805 ft | 186 kts | 60° |
| 2026-04-17 10:10 | 48.27552 | 11.46128 | 6717 ft | 173 kts | 61° |
| 2026-04-17 10:10 | 48.28110 | 11.47617 | 6683 ft | 153 kts | 63° |
| 2026-04-17 10:10 | 48.28587 | 11.48945 | 6508 ft | 141 kts | 64° |
| 2026-04-17 10:11 | 48.29488 | 11.51520 | 5887 ft | 138 kts | 64° |
| 2026-04-17 10:11 | 48.29930 | 11.52766 | 5578 ft | 136 kts | 63° |
| 2026-04-17 10:11 | 48.30383 | 11.54022 | 5277 ft | 138 kts | 63° |
| 2026-04-17 10:11 | 48.30852 | 11.55320 | 5014 ft | 141 kts | 63° |
| 2026-04-17 10:12 | 48.31323 | 11.56635 | 4738 ft | 147 kts | 63° |
| 2026-04-17 10:12 | 48.31817 | 11.58030 | 4452 ft | 151 kts | 64° |
| 2026-04-17 10:12 | 48.32302 | 11.59481 | 4134 ft | 166 kts | 65° |
| 2026-04-17 10:12 | 48.32810 | 11.61141 | 3825 ft | 180 kts | 70° |
| 2026-04-17 10:13 | 48.33196 | 11.62977 | 3418 ft | 191 kts | 76° |
| 2026-04-17 10:13 | 48.33461 | 11.64922 | 2993 ft | 186 kts | 83° |
| 2026-04-17 10:13 | 48.33524 | 11.66824 | 2676 ft | 175 kts | 89° |
| 2026-04-17 10:13 | 48.33533 | 11.68586 | 2437 ft | 163 kts | 88° |
| 2026-04-17 10:14 | 48.33659 | 11.70197 | 2255 ft | 150 kts | 80° |
| 2026-04-17 10:14 | 48.33796 | 11.71711 | 2020 ft | 142 kts | 84° |
| 2026-04-17 10:14 | 48.33917 | 11.73150 | 1824 ft | 136 kts | 83° |
| 2026-04-17 10:14 | 48.34032 | 11.74537 | 1598 ft | 130 kts | 85° |
| 2026-04-17 10:15 | 48.34120 | 11.75817 | 1465 ft | 115 kts | 80° |
| 2026-04-17 10:15 | 48.34196 | 11.76764 | 1466 ft | 65 kts | 84° |
| 2026-04-17 10:15 | 48.34244 | 11.77317 | 1471 ft | 50 kts | 73° |
| 2026-04-17 10:15 | 48.34407 | 11.77712 | 1462 ft | 36 kts | 53° |
| 2026-04-17 10:16 | 48.34476 | 11.77852 | 1466 ft | 0 kts | 54° |
| 2026-04-17 10:17 | 48.34479 | 11.77857 | 1466 ft | 1 kts | 54° |
| 2026-04-17 10:17 | 48.34495 | 11.77892 | 1467 ft | 9 kts | 54° |
| 2026-04-17 10:18 | 48.34552 | 11.78019 | 1464 ft | 19 kts | 64° |
| 2026-04-17 10:18 | 48.34580 | 11.78249 | 1465 ft | 25 kts | 83° |
| 2026-04-17 10:18 | 48.34602 | 11.78523 | 1470 ft | 24 kts | 83° |
| 2026-04-17 10:18 | 48.34622 | 11.78814 | 1462 ft | 31 kts | 83° |
| 2026-04-17 10:19 | 48.34650 | 11.79161 | 1463 ft | 36 kts | 82° |
| 2026-04-17 10:19 | 48.34662 | 11.79306 | 1470 ft | 0 kts | 83° |
| 2026-04-17 10:19 | 48.34666 | 11.79359 | 1470 ft | 11 kts | 83° |
| 2026-04-17 10:19 | 48.34685 | 11.79513 | 1463 ft | 16 kts | 54° |
| 2026-04-17 10:20 | 48.34759 | 11.79556 | 1467 ft | 9 kts | 9° |
| 2026-04-17 10:20 | 48.34853 | 11.79559 | 1465 ft | 18 kts | 355° |
| 2026-04-17 10:20 | 48.34915 | 11.79548 | 1468 ft | 0 kts | 351° |
| 2026-04-17 10:21 | 48.34921 | 11.79546 | 1467 ft | 5 kts | 351° |
| 2026-04-17 10:21 | 48.35000 | 11.79532 | 1466 ft | 17 kts | 353° |
| 2026-04-17 10:21 | 48.35158 | 11.79505 | 1466 ft | 28 kts | 354° |
| 2026-04-17 10:21 | 48.35307 | 11.79479 | 1461 ft | 18 kts | 354° |
| 2026-04-17 10:22 | 48.35430 | 11.79459 | 1463 ft | 20 kts | 355° |
| 2026-04-17 10:22 | 48.35530 | 11.79444 | 1462 ft | 6 kts | 353° |
| 2026-04-17 10:22 | 48.35571 | 11.79437 | 1462 ft | 3 kts | 354° |
| 2026-04-17 10:22 | 48.35614 | 11.79430 | 1466 ft | 4 kts | 353° |
| 2026-04-17 10:23 | 48.35642 | 11.79357 | 1470 ft | 13 kts | 263° |
| 2026-04-17 10:23 | 48.35636 | 11.79292 | 1467 ft | 4 kts | 261° |
| 2026-04-17 10:23 | 48.35635 | 11.79281 | 1465 ft | 0 kts | 261° |